Time;durP1;ratioP1;P1;durP2;ratioP2;P2;SDS_P1;SDS_P2;PMS_P1;PMS_P2;Temp;Humidity;BMP_temperature;BMP_pressure;BME280_temperature;BME280_humidity;BME280_pressure;Samples;Min_cycle;Max_cycle;Signal;HPM_P1;HPM_P2
2022/07/01 00:00:49;;;;;;;8.82;0.88;;;16.80;99.90;;;;;;4876812;29;20033;-75
2022/07/01 00:03:14;;;;;;;6.35;0.60;;;16.80;99.90;;;;;;4877296;29;20197;-75
2022/07/01 00:05:40;;;;;;;4.43;0.85;;;16.70;99.90;;;;;;4877012;29;20049;-75
2022/07/01 00:08:06;;;;;;;4.20;0.73;;;16.70;99.90;;;;;;4877588;29;20021;-75
2022/07/01 00:10:31;;;;;;;9.60;1.45;;;16.70;99.90;;;;;;4877715;29;20478;-75
2022/07/01 00:12:57;;;;;;;4.30;0.73;;;16.70;99.90;;;;;;4876191;29;20029;-75
2022/07/01 00:15:23;;;;;;;5.75;0.80;;;16.70;99.90;;;;;;4876714;29;20059;-75
2022/07/01 00:17:49;;;;;;;5.15;0.77;;;16.60;99.90;;;;;;4876438;29;20017;-75
2022/07/01 00:20:16;;;;;;;2.60;0.98;;;16.60;99.90;;;;;;4876209;29;20033;-75
2022/07/01 00:22:42;;;;;;;3.78;0.68;;;16.70;99.90;;;;;;4876594;29;20385;-75
2022/07/01 00:25:08;;;;;;;5.15;0.70;;;16.60;99.90;;;;;;4878078;29;20017;-75
2022/07/01 00:27:38;;;;;;;3.75;0.73;;;16.50;99.90;;;;;;4876287;29;20058;-74
2022/07/01 00:30:05;;;;;;;5.80;0.70;;;16.50;99.90;;;;;;4876115;29;20100;-75
2022/07/01 00:32:30;;;;;;;7.13;0.63;;;16.50;99.90;;;;;;4875853;29;20029;-75
2022/07/01 00:34:56;;;;;;;6.38;0.95;;;16.50;99.90;;;;;;4879449;29;20028;-75
2022/07/01 00:37:21;;;;;;;5.18;0.65;;;16.50;99.90;;;;;;4876363;29;20033;-74
2022/07/01 00:39:47;;;;;;;5.13;0.60;;;16.50;99.90;;;;;;4878427;29;20044;-74
2022/07/01 00:42:13;;;;;;;3.63;0.68;;;16.50;99.90;;;;;;4878696;29;20033;-75
2022/07/01 00:44:39;;;;;;;4.72;0.70;;;16.50;99.90;;;;;;4879650;29;20282;-75
2022/07/01 00:47:11;;;;;;;5.50;0.77;;;16.40;99.90;;;;;;4879395;29;20029;-74
2022/07/01 00:49:37;;;;;;;3.40;0.50;;;16.40;99.90;;;;;;4882172;29;20256;-75
2022/07/01 00:52:08;;;;;;;5.93;0.70;;;16.30;99.90;;;;;;4880033;29;20134;-75
2022/07/01 00:54:36;;;;;;;7.35;1.15;;;16.30;99.90;;;;;;4882727;29;20148;-75
2022/07/01 00:57:11;;;;;;;3.97;0.40;;;16.30;99.90;;;;;;4880559;29;20581;-75
2022/07/01 00:59:38;;;;;;;5.82;1.45;;;16.20;99.90;;;;;;4883280;29;20036;-75
2022/07/01 01:02:05;;;;;;;5.72;0.77;;;16.10;99.90;;;;;;4879269;29;20029;-75
2022/07/01 01:04:32;;;;;;;4.03;0.90;;;16.10;99.90;;;;;;4879390;29;20048;-75
2022/07/01 01:07:00;;;;;;;4.13;0.68;;;16.10;99.90;;;;;;4879131;29;20041;-75
2022/07/01 01:09:25;;;;;;;5.43;0.70;;;16.00;99.90;;;;;;4879657;29;20056;-75
2022/07/01 01:11:51;;;;;;;6.00;1.13;;;15.90;99.90;;;;;;4883624;29;20041;-75
2022/07/01 01:14:17;;;;;;;3.15;0.57;;;15.90;99.90;;;;;;4880616;29;20029;-75
2022/07/01 01:16:42;;;;;;;5.07;1.00;;;15.80;99.90;;;;;;4879457;29;20021;-75
2022/07/01 01:19:08;;;;;;;7.70;0.73;;;15.70;99.90;;;;;;4882269;29;20033;-75
2022/07/01 01:21:34;;;;;;;10.45;0.70;;;15.70;99.90;;;;;;4882903;29;20028;-75
2022/07/01 01:24:00;;;;;;;4.30;0.80;;;15.60;99.90;;;;;;4881793;29;20494;-75
2022/07/01 01:26:26;;;;;;;5.95;0.85;;;15.60;99.90;;;;;;4881485;29;20037;-75
2022/07/01 01:28:52;;;;;;;5.63;0.68;;;15.60;99.90;;;;;;4883812;29;20422;-74
2022/07/01 01:31:31;;;;;;;5.82;0.70;;;15.50;99.90;;;;;;4881038;29;20041;-75
2022/07/01 01:33:57;;;;;;;3.75;0.95;;;15.40;99.90;;;;;;4882956;29;20490;-75
2022/07/01 01:36:22;;;;;;;2.88;0.65;;;15.40;99.90;;;;;;4881025;29;20317;-75
2022/07/01 01:38:48;;;;;;;7.40;0.95;;;15.30;99.90;;;;;;4879291;29;20021;-74
2022/07/01 01:41:14;;;;;;;7.00;1.10;;;15.30;99.90;;;;;;4883201;29;20059;-74
2022/07/01 01:43:39;;;;;;;3.97;0.70;;;15.20;99.90;;;;;;4885008;29;20032;-74
2022/07/01 01:46:05;;;;;;;5.50;0.88;;;15.20;99.90;;;;;;4883239;29;20305;-74
2022/07/01 01:48:31;;;;;;;4.45;1.02;;;15.20;99.90;;;;;;4879213;29;20021;-75
2022/07/01 01:50:57;;;;;;;6.25;1.10;;;15.10;99.90;;;;;;4881703;29;20033;-75
2022/07/01 01:53:23;;;;;;;6.03;1.17;;;15.10;99.90;;;;;;4879608;29;20509;-74
2022/07/01 01:55:49;;;;;;;4.40;0.68;;;15.10;99.90;;;;;;4880100;29;20283;-74
2022/07/01 01:58:15;;;;;;;2.60;0.80;;;15.10;99.90;;;;;;4879357;29;20017;-75
2022/07/01 02:00:41;;;;;;;5.03;1.52;;;15.10;99.90;;;;;;4880646;29;20448;-75
2022/07/01 02:03:06;;;;;;;5.38;0.73;;;15.00;99.90;;;;;;4879348;29;20109;-75
2022/07/01 02:05:33;;;;;;;6.72;1.02;;;15.00;99.90;;;;;;4880115;29;20033;-75
2022/07/01 02:07:59;;;;;;;5.13;0.80;;;15.00;99.90;;;;;;4882226;29;20487;-75
2022/07/01 02:10:25;;;;;;;5.32;0.73;;;15.10;99.90;;;;;;4881716;29;20029;-75
2022/07/01 02:12:50;;;;;;;4.47;1.00;;;15.10;99.90;;;;;;4879221;29;20471;-75
2022/07/01 02:15:16;;;;;;;5.72;0.98;;;15.10;99.90;;;;;;4879062;29;20026;-75
2022/07/01 02:17:42;;;;;;;5.07;0.60;;;15.20;99.90;;;;;;4878236;29;20037;-74
2022/07/01 02:20:08;;;;;;;4.65;0.95;;;15.20;99.90;;;;;;4879431;29;20025;-75
2022/07/01 02:22:34;;;;;;;5.13;0.70;;;15.20;99.90;;;;;;4881367;29;20064;-75
2022/07/01 02:24:59;;;;;;;4.93;0.98;;;15.30;99.90;;;;;;4880143;29;20375;-75
2022/07/01 02:27:25;;;;;;;6.28;1.23;;;15.30;99.90;;;;;;4882529;29;20029;-75
2022/07/01 02:29:51;;;;;;;4.82;0.80;;;15.30;99.90;;;;;;4877910;29;20056;-75
2022/07/01 02:32:16;;;;;;;5.68;1.05;;;15.20;99.90;;;;;;4878928;29;20395;-75
2022/07/01 02:34:42;;;;;;;5.13;0.75;;;15.30;99.90;;;;;;4881291;29;20104;-74
2022/07/01 02:37:08;;;;;;;4.43;0.88;;;15.20;99.90;;;;;;4878458;29;20474;-75
2022/07/01 02:39:34;;;;;;;5.15;1.20;;;15.20;99.90;;;;;;4877670;29;20080;-75
2022/07/01 02:44:43;;;;;;;4.05;0.82;;;15.00;99.90;;;;;;4880539;29;20416;-76
2022/07/01 02:47:09;;;;;;;5.95;1.50;;;15.00;99.90;;;;;;4877471;29;20037;-77
2022/07/01 02:49:34;;;;;;;7.68;1.27;;;14.90;99.90;;;;;;4882770;29;20028;-77
2022/07/01 02:52:00;;;;;;;5.57;0.75;;;14.90;99.90;;;;;;4878544;29;20044;-77
2022/07/01 02:54:26;;;;;;;2.50;0.60;;;14.80;99.90;;;;;;4880391;29;20029;-77
2022/07/01 02:56:51;;;;;;;7.45;0.80;;;14.80;99.90;;;;;;4877382;29;20033;-76
2022/07/01 02:59:17;;;;;;;3.60;0.63;;;14.70;99.90;;;;;;4883852;29;20048;-77
2022/07/01 03:01:43;;;;;;;5.63;0.60;;;14.70;99.90;;;;;;4877540;29;20057;-77
2022/07/01 03:04:08;;;;;;;5.45;0.77;;;14.80;99.90;;;;;;4878060;29;20052;-77
2022/07/01 03:06:34;;;;;;;9.10;0.98;;;14.70;99.90;;;;;;4866805;29;20053;-77
2022/07/01 03:08:59;;;;;;;5.25;0.98;;;14.70;99.90;;;;;;4874612;29;20089;-77
2022/07/01 03:11:25;;;;;;;6.78;0.90;;;14.70;99.90;;;;;;4877186;29;20160;-76
2022/07/01 03:13:51;;;;;;;3.42;0.70;;;14.80;99.90;;;;;;4880555;29;20025;-77
2022/07/01 03:16:16;;;;;;;4.03;0.82;;;14.80;99.90;;;;;;4880644;29;20177;-77
2022/07/01 03:18:42;;;;;;;3.97;0.77;;;14.90;99.90;;;;;;4879335;29;20021;-77
2022/07/01 03:21:07;;;;;;;3.78;0.70;;;15.00;99.90;;;;;;4877659;29;20040;-76
2022/07/01 03:23:33;;;;;;;7.25;1.20;;;15.10;99.90;;;;;;4881662;29;20214;-77
2022/07/01 03:25:59;;;;;;;5.97;0.95;;;15.10;99.90;;;;;;4879745;29;20041;-77
2022/07/01 03:28:24;;;;;;;5.50;1.30;;;15.20;99.90;;;;;;4880573;29;20065;-76
2022/07/01 03:30:50;;;;;;;4.13;1.42;;;15.20;99.90;;;;;;4876573;29;20480;-75
2022/07/01 03:33:16;;;;;;;2.50;0.80;;;15.30;99.90;;;;;;4878533;29;20333;-75
2022/07/01 03:35:45;;;;;;;3.50;0.90;;;15.30;99.90;;;;;;4876855;29;20035;-75
2022/07/01 03:38:11;;;;;;;6.25;0.90;;;15.30;99.90;;;;;;4876665;29;20013;-75
2022/07/01 03:40:37;;;;;;;6.72;1.10;;;15.30;99.90;;;;;;4877062;29;20064;-75
2022/07/01 03:43:04;;;;;;;5.28;0.90;;;15.20;99.90;;;;;;4878876;29;20246;-75
2022/07/01 03:45:30;;;;;;;4.43;1.05;;;15.20;99.90;;;;;;4876463;29;20037;-75
2022/07/01 03:47:56;;;;;;;8.82;1.48;;;15.20;99.90;;;;;;4878720;29;20092;-75
2022/07/01 03:50:24;;;;;;;8.00;1.33;;;15.20;99.90;;;;;;4864623;29;20351;-75
2022/07/01 03:54:29;;;;;;;3.63;0.82;;;15.20;99.90;;;;;;4876586;29;20057;-75
2022/07/01 03:55:35;;;;;;;3.25;1.00;;;15.30;99.90;;;;;;4876373;29;20040;-75
2022/07/01 03:58:01;;;;;;;5.32;0.77;;;15.40;99.90;;;;;;4879871;29;20394;-75
2022/07/01 04:00:27;;;;;;;7.53;1.10;;;15.40;99.90;;;;;;4876402;29;20044;-74
2022/07/01 04:02:53;;;;;;;4.75;0.90;;;15.50;99.90;;;;;;4876912;29;20049;-75
2022/07/01 04:05:18;;;;;;;5.20;1.08;;;15.50;99.90;;;;;;4882589;29;20446;-74
2022/07/01 04:07:44;;;;;;;4.53;0.88;;;15.60;99.90;;;;;;4877542;29;20051;-74
2022/07/01 04:10:10;;;;;;;7.25;0.95;;;15.60;99.90;;;;;;4876128;29;20037;-74
2022/07/01 04:12:35;;;;;;;5.75;1.25;;;15.60;99.90;;;;;;4876976;29;20536;-74
2022/07/01 04:15:02;;;;;;;6.57;1.52;;;15.60;99.90;;;;;;4876922;29;20035;-74
2022/07/01 04:17:28;;;;;;;6.72;1.13;;;15.60;99.90;;;;;;4876565;29;20052;-75
2022/07/01 04:19:54;;;;;;;7.25;1.02;;;15.60;99.90;;;;;;4877816;29;20046;-74
2022/07/01 04:22:35;;;;;;;4.32;1.00;;;15.60;99.90;;;;;;4875861;29;20049;-75
2022/07/01 04:25:03;;;;;;;4.80;1.05;;;15.50;99.90;;;;;;4875941;29;20021;-74
2022/07/01 04:27:30;;;;;;;4.43;1.00;;;15.50;99.90;;;;;;4877270;29;20538;-75
2022/07/01 04:29:56;;;;;;;2.80;0.80;;;15.40;99.90;;;;;;4878070;29;20479;-75
2022/07/01 04:32:22;;;;;;;4.70;0.88;;;15.40;99.90;;;;;;4878065;29;20029;-74
2022/07/01 04:34:48;;;;;;;7.95;0.90;;;15.30;99.90;;;;;;4877077;29;20424;-75
2022/07/01 04:37:14;;;;;;;2.47;0.73;;;15.20;99.90;;;;;;4879084;29;20090;-74
2022/07/01 04:39:39;;;;;;;6.38;0.82;;;15.30;99.90;;;;;;4875912;29;20092;-74
2022/07/01 04:42:05;;;;;;;3.63;0.70;;;15.20;99.90;;;;;;4876620;29;20048;-74
2022/07/01 04:44:37;;;;;;;5.68;0.90;;;15.20;99.90;;;;;;4876067;29;20342;-74
2022/07/01 04:47:04;;;;;;;4.93;0.85;;;15.30;99.90;;;;;;4875656;29;20044;-75
2022/07/01 04:49:31;;;;;;;5.35;0.90;;;15.30;99.90;;;;;;4877512;29;20069;-75
2022/07/01 04:51:57;;;;;;;7.03;0.98;;;15.30;99.90;;;;;;4876353;29;20029;-74
2022/07/01 04:54:25;;;;;;;7.82;0.85;;;15.30;99.90;;;;;;4876470;29;20108;-75
2022/07/01 04:56:52;;;;;;;5.85;1.10;;;15.40;99.90;;;;;;4876439;29;20116;-75
2022/07/01 04:59:19;;;;;;;6.72;1.08;;;15.50;99.90;;;;;;4875952;29;20037;-74
2022/07/01 05:01:45;;;;;;;6.13;1.13;;;15.60;99.90;;;;;;4875845;29;20025;-75
2022/07/01 05:04:11;;;;;;;6.43;0.93;;;15.60;99.90;;;;;;4875480;29;20111;-75
2022/07/01 05:06:37;;;;;;;6.72;1.02;;;15.70;99.90;;;;;;4875878;29;20132;-75
2022/07/01 05:09:03;;;;;;;5.25;0.70;;;15.80;99.90;;;;;;4880302;29;20033;-75
2022/07/01 05:11:29;;;;;;;5.93;1.75;;;15.90;99.90;;;;;;4877399;29;20045;-75
2022/07/01 05:13:55;;;;;;;6.00;1.15;;;15.90;99.90;;;;;;4875964;29;20450;-75
2022/07/01 05:16:20;;;;;;;7.15;0.88;;;15.90;99.90;;;;;;4880435;29;20032;-75
2022/07/01 05:24:15;;;;;;;6.10;0.98;;;16.00;99.90;;;;;;4878327;29;20355;-75
2022/07/01 05:26:40;;;;;;;9.43;1.08;;;16.00;99.90;;;;;;4876940;29;20065;-75
2022/07/01 05:29:06;;;;;;;4.60;0.70;;;15.90;99.90;;;;;;4878668;29;20585;-75
2022/07/01 05:31:32;;;;;;;3.42;0.80;;;15.90;99.90;;;;;;4878409;29;20041;-75
2022/07/01 05:33:57;;;;;;;5.35;0.85;;;15.90;99.90;;;;;;4878391;29;20033;-75
2022/07/01 05:36:23;;;;;;;7.10;0.80;;;15.90;99.90;;;;;;4878451;29;20025;-75
2022/07/01 05:38:49;;;;;;;5.43;1.20;;;15.90;99.90;;;;;;4878293;29;20025;-75
2022/07/01 05:41:15;;;;;;;7.47;0.95;;;15.90;99.90;;;;;;4881420;29;20037;-75
2022/07/01 05:43:41;;;;;;;4.53;0.73;;;15.90;99.90;;;;;;4887011;29;20027;-75
2022/07/01 05:46:06;;;;;;;10.75;1.27;;;15.90;99.90;;;;;;4882792;29;20062;-75
2022/07/01 05:48:32;;;;;;;7.25;0.80;;;16.00;99.90;;;;;;4878533;29;20482;-75
2022/07/01 05:50:58;;;;;;;9.93;1.20;;;16.00;99.90;;;;;;4882818;29;20442;-75
2022/07/01 05:53:23;;;;;;;4.07;1.00;;;16.00;99.90;;;;;;4867752;29;20029;-75
2022/07/01 05:55:50;;;;;;;4.28;1.10;;;16.00;99.90;;;;;;4887328;29;20025;-75
2022/07/01 05:58:16;;;;;;;4.82;0.82;;;16.10;99.90;;;;;;4885207;29;20291;-75
2022/07/01 06:00:42;;;;;;;5.10;1.02;;;16.10;99.90;;;;;;4882004;29;20047;-75
2022/07/01 06:03:12;;;;;;;3.58;0.90;;;16.20;99.90;;;;;;4882141;29;20349;-76
2022/07/01 06:05:38;;;;;;;3.55;0.93;;;16.30;99.90;;;;;;4889067;29;20033;-75
2022/07/01 06:08:04;;;;;;;5.10;1.10;;;16.40;99.90;;;;;;4885872;29;20033;-75
2022/07/01 06:10:30;;;;;;;4.57;0.80;;;16.50;99.90;;;;;;4886807;29;20703;-75
2022/07/01 06:12:56;;;;;;;7.90;0.80;;;16.50;99.90;;;;;;4888933;29;20024;-75
2022/07/01 06:15:21;;;;;;;4.63;1.08;;;16.60;99.90;;;;;;4882135;29;20032;-75
2022/07/01 06:17:49;;;;;;;5.18;1.35;;;16.70;99.90;;;;;;4883895;29;20306;-75
2022/07/01 06:20:15;;;;;;;6.25;0.95;;;16.70;99.90;;;;;;4881032;29;20020;-75
2022/07/01 06:22:40;;;;;;;6.55;0.90;;;16.80;99.90;;;;;;4881406;29;20212;-75
2022/07/01 06:25:07;;;;;;;8.70;1.15;;;17.00;99.90;;;;;;4881374;29;20025;-75
2022/07/01 06:27:40;;;;;;;8.98;0.98;;;17.00;99.90;;;;;;4878533;29;20406;-75
2022/07/01 06:30:06;;;;;;;7.47;1.60;;;17.10;99.90;;;;;;4885703;29;20068;-75
2022/07/01 06:32:31;;;;;;;6.78;1.00;;;17.30;99.90;;;;;;4883142;29;20239;-75
2022/07/01 06:34:57;;;;;;;8.48;1.42;;;17.40;99.90;;;;;;4880436;29;20036;-75
2022/07/01 06:37:23;;;;;;;7.05;1.08;;;17.50;99.90;;;;;;4876387;29;20081;-75
2022/07/01 06:39:49;;;;;;;5.55;1.05;;;17.60;99.90;;;;;;4876534;29;20084;-76
2022/07/01 06:42:15;;;;;;;5.00;1.08;;;17.70;99.90;;;;;;4877693;29;20031;-76
2022/07/01 06:44:40;;;;;;;5.25;1.08;;;17.90;99.90;;;;;;4877790;29;20037;-76
2022/07/01 06:47:06;;;;;;;3.78;1.13;;;18.00;99.90;;;;;;4877305;29;20417;-76
2022/07/01 06:49:32;;;;;;;11.63;1.35;;;18.00;99.90;;;;;;4877571;29;20021;-76
2022/07/01 06:51:57;;;;;;;11.57;0.93;;;18.10;99.90;;;;;;4877305;29;20229;-76
2022/07/01 06:54:23;;;;;;;6.70;0.90;;;18.00;99.90;;;;;;4877379;29;20116;-76
2022/07/01 06:56:49;;;;;;;6.55;1.02;;;18.20;99.90;;;;;;4877492;29;20036;-76
2022/07/01 06:59:15;;;;;;;7.72;0.95;;;18.40;99.90;;;;;;4864171;29;20025;-75
2022/07/01 07:01:41;;;;;;;6.53;0.80;;;18.70;99.90;;;;;;4865926;29;20025;-75
2022/07/01 07:04:07;;;;;;;5.43;0.80;;;18.90;99.90;;;;;;4868215;29;20041;-74
2022/07/01 07:06:33;;;;;;;5.30;0.90;;;19.10;99.90;;;;;;4870029;29;20304;-75
2022/07/01 07:08:59;;;;;;;4.32;0.93;;;19.40;99.90;;;;;;4874020;29;20036;-74
2022/07/01 07:11:25;;;;;;;6.05;1.10;;;19.50;99.90;;;;;;4869176;29;20041;-75
2022/07/01 07:13:50;;;;;;;10.55;1.27;;;19.50;99.90;;;;;;4868570;29;20029;-75
2022/07/01 07:16:20;;;;;;;5.47;1.10;;;19.50;99.90;;;;;;4868980;29;20092;-75
2022/07/01 07:18:47;;;;;;;5.85;0.80;;;19.40;99.90;;;;;;4872490;29;20028;-75
2022/07/01 07:21:12;;;;;;;6.50;1.25;;;19.30;99.90;;;;;;4868269;29;20413;-75
2022/07/01 07:23:38;;;;;;;3.47;0.75;;;19.20;99.90;;;;;;4872514;29;20028;-75
2022/07/01 07:26:04;;;;;;;5.93;0.57;;;18.90;99.90;;;;;;4868195;29;20508;-76
2022/07/01 07:28:29;;;;;;;4.82;1.30;;;18.80;99.90;;;;;;4874926;29;20036;-76
2022/07/01 07:30:55;;;;;;;3.85;0.63;;;18.60;99.90;;;;;;4875533;29;20037;-75
2022/07/01 07:33:21;;;;;;;4.13;0.50;;;18.50;99.90;;;;;;4867667;29;20052;-75
2022/07/01 07:35:46;;;;;;;4.43;0.82;;;18.50;99.90;;;;;;4871477;29;20081;-75
2022/07/01 07:38:12;;;;;;;7.55;1.00;;;18.40;99.90;;;;;;4878988;29;20171;-75
2022/07/01 07:40:38;;;;;;;2.17;0.70;;;18.20;99.90;;;;;;4872405;29;20039;-75
2022/07/01 07:43:06;;;;;;;9.18;1.33;;;18.00;99.90;;;;;;4876187;29;20263;-75
2022/07/01 07:45:32;;;;;;;6.20;0.93;;;17.90;99.90;;;;;;4869040;29;20023;-75
2022/07/01 07:48:00;;;;;;;7.68;1.52;;;17.80;99.90;;;;;;4873042;29;20120;-75
2022/07/01 07:50:26;;;;;;;10.70;2.08;;;17.80;99.90;;;;;;4871437;29;20013;-75
2022/07/01 07:52:52;;;;;;;8.52;1.13;;;17.90;99.90;;;;;;4880016;29;20394;-76
2022/07/01 07:55:18;;;;;;;3.88;0.57;;;17.90;99.90;;;;;;4872625;29;20494;-77
2022/07/01 07:57:44;;;;;;;5.30;0.95;;;17.90;99.90;;;;;;4865939;29;20025;-76
2022/07/01 08:00:12;;;;;;;4.93;0.85;;;17.90;99.90;;;;;;4865567;29;20108;-76
2022/07/01 08:02:39;;;;;;;3.85;0.65;;;17.90;99.90;;;;;;4866415;29;20045;-76
2022/07/01 08:05:05;;;;;;;4.10;0.73;;;18.00;99.90;;;;;;4868310;29;20064;-76
2022/07/01 08:07:36;;;;;;;6.95;0.90;;;17.90;99.90;;;;;;4868464;29;20358;-76
2022/07/01 08:10:02;;;;;;;9.45;1.10;;;18.00;99.90;;;;;;4869001;29;20029;-76
2022/07/01 08:12:27;;;;;;;7.20;0.57;;;18.20;99.90;;;;;;4869570;29;20107;-76
2022/07/01 08:14:53;;;;;;;8.60;1.10;;;18.20;99.90;;;;;;4873998;29;20296;-76
2022/07/01 08:17:19;;;;;;;4.97;0.85;;;18.20;99.90;;;;;;4879485;29;20040;-76
2022/07/01 08:19:45;;;;;;;4.45;0.75;;;18.40;99.90;;;;;;4871300;29;20090;-74
2022/07/01 08:22:10;;;;;;;5.57;0.68;;;18.60;99.90;;;;;;4873647;29;20533;-74
2022/07/01 08:24:36;;;;;;;2.78;0.70;;;18.90;99.90;;;;;;4871989;29;20108;-74
2022/07/01 08:27:02;;;;;;;3.42;0.95;;;19.20;99.90;;;;;;4878948;29;20098;-74
2022/07/01 08:29:27;;;;;;;6.07;0.80;;;19.40;99.90;;;;;;4876110;29;20109;-75
2022/07/01 08:31:53;;;;;;;4.03;0.60;;;19.50;99.90;;;;;;4876721;29;20029;-75
2022/07/01 08:34:18;;;;;;;3.40;0.68;;;19.70;99.90;;;;;;4877764;29;20033;-76
2022/07/01 08:36:44;;;;;;;4.25;0.73;;;19.90;99.90;;;;;;4875450;29;20517;-76
2022/07/01 08:39:10;;;;;;;7.32;1.10;;;20.20;99.90;;;;;;4875786;29;20471;-77
2022/07/01 08:41:35;;;;;;;3.20;0.70;;;20.50;99.90;;;;;;4875329;29;20059;-76
2022/07/01 08:44:04;;;;;;;3.83;0.60;;;20.70;99.90;;;;;;4875064;29;20247;-75
2022/07/01 08:46:30;;;;;;;4.50;0.70;;;20.40;99.90;;;;;;4876260;29;20398;-76
2022/07/01 08:48:55;;;;;;;3.53;0.80;;;20.00;99.90;;;;;;4875767;29;20113;-76
2022/07/01 08:51:21;;;;;;;3.97;0.63;;;19.90;99.90;;;;;;4875506;29;20037;-76
2022/07/01 08:53:47;;;;;;;1.30;0.43;;;19.70;99.90;;;;;;4875386;29;20107;-76
2022/07/01 08:58:58;;;;;;;2.20;0.40;;;19.60;99.90;;;;;;4874972;29;20546;-75
2022/07/01 09:01:25;;;;;;;3.85;0.60;;;19.40;99.90;;;;;;4874910;29;20116;-76
2022/07/01 09:03:56;;;;;;;2.53;0.50;;;19.30;99.90;;;;;;4878644;29;20057;-76
2022/07/01 09:06:25;;;;;;;4.70;1.15;;;19.30;99.90;;;;;;4878951;29;20064;-76
2022/07/01 09:08:51;;;;;;;3.38;0.60;;;19.20;99.90;;;;;;4879272;29;20489;-76
2022/07/01 09:11:24;;;;;;;2.78;0.50;;;19.20;99.90;;;;;;4879310;29;20039;-76
2022/07/01 09:14:11;;;;;;;3.00;0.50;;;19.30;99.90;;;;;;4879731;29;20033;-76
2022/07/01 09:16:48;;;;;;;6.00;0.93;;;19.40;99.90;;;;;;4878534;29;20069;-75
2022/07/01 09:19:15;;;;;;;6.13;0.60;;;19.40;99.90;;;;;;4878679;29;20069;-75
2022/07/01 09:21:41;;;;;;;3.85;0.50;;;19.50;99.90;;;;;;4878484;29;20389;-75
2022/07/01 09:24:30;;;;;;;7.97;0.80;;;19.70;99.90;;;;;;4878154;29;20029;-76
2022/07/01 09:27:09;;;;;;;3.15;0.45;;;20.00;99.90;;;;;;4878818;29;20054;-76
2022/07/01 09:29:39;;;;;;;5.50;0.90;;;19.90;99.90;;;;;;4878654;29;20366;-76
2022/07/01 09:32:07;;;;;;;3.75;0.80;;;19.90;99.90;;;;;;4877950;29;20064;-76
2022/07/01 09:34:41;;;;;;;4.50;0.60;;;19.70;99.90;;;;;;4878322;29;20018;-78
2022/07/01 09:37:07;;;;;;;5.55;1.42;;;19.70;99.90;;;;;;4878680;29;20021;-76
2022/07/01 09:39:54;;;;;;;4.72;1.13;;;19.90;99.90;;;;;;4878094;29;20037;-76
2022/07/01 09:42:22;;;;;;;4.75;0.93;;;19.90;99.90;;;;;;4879478;29;20031;-76
2022/07/01 09:45:05;;;;;;;4.95;0.70;;;20.10;99.90;;;;;;4878148;29;20024;-77
2022/07/01 09:47:33;;;;;;;2.45;0.80;;;20.40;99.90;;;;;;4866187;29;20135;-76
2022/07/01 09:49:59;;;;;;;4.72;0.40;;;20.50;99.90;;;;;;4878346;29;20028;-76
2022/07/01 09:52:25;;;;;;;5.15;0.90;;;20.90;99.90;;;;;;4877885;29;20068;-76
2022/07/01 09:54:52;;;;;;;4.15;0.60;;;21.30;99.90;;;;;;4876817;29;20120;-76
2022/07/01 09:57:18;;;;;;;4.50;0.55;;;21.50;99.90;;;;;;4870356;29;20081;-77
2022/07/01 09:59:44;;;;;;;3.33;0.60;;;21.30;99.90;;;;;;4872396;29;20056;-77
2022/07/01 10:02:11;;;;;;;2.00;0.52;;;21.00;99.90;;;;;;4877720;29;20502;-77
2022/07/01 10:04:40;;;;;;;7.03;0.60;;;20.90;99.90;;;;;;4878284;29;20031;-77
2022/07/01 10:07:29;;;;;;;2.75;0.70;;;20.90;99.90;;;;;;4878189;29;20037;-76
2022/07/01 10:10:31;;;;;;;3.13;0.80;;;20.60;99.90;;;;;;4867752;29;20063;-76
2022/07/01 10:12:59;;;;;;;5.47;0.98;;;20.40;99.90;;;;;;4877764;29;20033;-76
2022/07/01 10:15:26;;;;;;;2.95;0.65;;;20.50;99.90;;;;;;4877417;29;20047;-77
2022/07/01 10:17:55;;;;;;;4.75;1.15;;;20.40;99.90;;;;;;4877535;29;20115;-78
2022/07/01 10:20:26;;;;;;;3.97;0.80;;;20.50;99.90;;;;;;4877501;29;20033;-75
2022/07/01 10:23:06;;;;;;;4.03;0.60;;;20.50;99.90;;;;;;4877548;29;20504;-75
2022/07/01 10:25:39;;;;;;;8.07;3.47;;;20.40;99.90;;;;;;4877239;29;20040;-75
2022/07/01 10:28:27;;;;;;;3.28;0.55;;;20.60;99.90;;;;;;4877290;29;20097;-75
2022/07/01 10:31:00;;;;;;;4.13;0.57;;;20.50;99.90;;;;;;4877886;29;20021;-80
2022/07/01 10:33:33;;;;;;;4.07;0.65;;;20.60;99.90;;;;;;4877523;29;20057;-75
2022/07/01 10:36:16;;;;;;;5.68;0.68;;;20.70;99.90;;;;;;4876831;29;20041;-75
2022/07/01 10:39:00;;;;;;;9.57;0.90;;;20.70;99.90;;;;;;4877992;29;20029;-75
2022/07/01 10:41:27;;;;;;;3.90;0.90;;;21.00;99.90;;;;;;4877389;29;20025;-75
2022/07/01 10:43:57;;;;;;;6.68;1.52;;;21.20;99.90;;;;;;4877715;29;20025;-76
2022/07/01 10:46:43;;;;;;;3.78;1.08;;;21.30;99.90;;;;;;4876835;29;20128;-81
2022/07/01 10:49:12;;;;;;;3.22;0.93;;;21.30;99.90;;;;;;4877390;29;20061;-76
2022/07/01 10:51:50;;;;;;;6.25;1.20;;;21.20;99.90;;;;;;4877027;29;20041;-76
2022/07/01 10:54:39;;;;;;;3.17;0.82;;;21.30;99.90;;;;;;4877182;29;20029;-76
2022/07/01 10:57:19;;;;;;;5.35;2.40;;;21.10;99.90;;;;;;4866955;29;20116;-75
2022/07/01 10:59:45;;;;;;;4.15;0.70;;;21.00;99.90;;;;;;4877062;29;20025;-76
2022/07/01 11:02:35;;;;;;;3.95;0.85;;;21.10;99.90;;;;;;4876540;29;20054;-76
2022/07/01 11:05:10;;;;;;;5.82;0.98;;;21.40;99.90;;;;;;4876230;29;20136;-76
2022/07/01 11:07:38;;;;;;;3.00;0.85;;;21.30;99.90;;;;;;4876741;29;20033;-76
2022/07/01 11:10:07;;;;;;;6.97;1.52;;;21.50;99.90;;;;;;4876703;29;20032;-77
2022/07/01 11:12:33;;;;;;;4.10;0.80;;;21.40;99.90;;;;;;4876649;29;20081;-76
2022/07/01 11:15:05;;;;;;;4.63;0.70;;;21.50;99.90;;;;;;4876692;29;20356;-76
2022/07/01 11:17:31;;;;;;;4.95;0.80;;;21.40;99.90;;;;;;4878991;29;20028;-76
2022/07/01 11:19:58;;;;;;;4.65;0.88;;;21.30;99.90;;;;;;4877780;29;20104;-76
2022/07/01 11:22:30;;;;;;;2.47;0.60;;;21.30;99.90;;;;;;4877922;29;20097;-76
2022/07/01 11:25:13;;;;;;;4.78;0.90;;;21.30;99.80;;;;;;4876082;29;20487;-76
2022/07/01 11:27:40;;;;;;;3.20;0.60;;;21.30;99.90;;;;;;4876663;29;20072;-76
2022/07/01 11:30:11;;;;;;;5.45;0.45;;;21.50;99.10;;;;;;4876968;29;20039;-76
2022/07/01 11:32:42;;;;;;;2.42;0.50;;;21.40;99.50;;;;;;4878615;29;20320;-78
2022/07/01 11:41:04;;;;;;;2.83;0.40;;;21.30;99.90;;;;;;4866632;29;20044;-77
2022/07/01 11:43:33;;;;;;;3.65;0.60;;;21.30;99.70;;;;;;4876031;29;20025;-78
2022/07/01 11:46:01;;;;;;;7.72;1.13;;;21.30;99.90;;;;;;4876344;29;20397;-78
2022/07/01 11:48:56;;;;;;;3.15;0.50;;;21.50;99.90;;;;;;4884884;29;20029;-77
2022/07/01 11:51:24;;;;;;;1.88;0.63;;;21.50;98.70;;;;;;4883066;29;20547;-77
2022/07/01 11:53:54;;;;;;;2.65;0.30;;;21.80;98.90;;;;;;4886472;29;20048;-78
2022/07/01 11:56:33;;;;;;;1.80;0.28;;;21.80;97.30;;;;;;4883090;29;20037;-78
2022/07/01 11:59:01;;;;;;;3.20;0.60;;;21.90;97.20;;;;;;4879777;29;20032;-77
2022/07/01 12:01:34;;;;;;;4.10;0.70;;;21.80;99.30;;;;;;4875889;29;20036;-78
2022/07/01 12:04:02;;;;;;;2.85;0.70;;;21.90;98.50;;;;;;4875769;29;20041;-78
2022/07/01 12:06:28;;;;;;;2.95;0.40;;;21.90;97.70;;;;;;4875867;29;20037;-78
2022/07/01 12:08:56;;;;;;;4.45;0.60;;;21.90;98.50;;;;;;4876038;29;20610;-77
2022/07/01 12:11:24;;;;;;;2.67;0.43;;;21.90;97.50;;;;;;4876285;29;20540;-78
2022/07/01 12:13:51;;;;;;;3.40;0.50;;;21.60;97.80;;;;;;4875868;29;20081;-79
2022/07/01 12:16:17;;;;;;;2.80;0.50;;;21.80;97.50;;;;;;4875969;29;20184;-80
2022/07/01 12:18:58;;;;;;;1.65;0.38;;;21.70;97.80;;;;;;4875683;29;20695;-79
2022/07/01 12:21:25;;;;;;;2.38;0.40;;;21.90;94.60;;;;;;4863920;29;20043;-81
2022/07/01 12:24:03;;;;;;;1.85;0.30;;;22.00;95.80;;;;;;4876358;29;20041;-82
2022/07/01 12:26:29;;;;;;;2.67;0.70;;;21.90;95.00;;;;;;4864863;29;20445;-80
2022/07/01 12:28:55;;;;;;;1.38;0.35;;;22.20;94.30;;;;;;4875825;29;20076;-80
2022/07/01 12:31:20;;;;;;;1.63;0.30;;;22.40;93.30;;;;;;4876357;29;20298;-79
2022/07/01 12:33:52;;;;;;;3.00;0.20;;;22.20;93.40;;;;;;4876335;29;20031;-80
2022/07/01 12:36:18;;;;;;;3.25;0.50;;;22.60;92.30;;;;;;4876184;29;20069;-80
2022/07/01 12:38:44;;;;;;;2.70;0.22;;;22.90;92.70;;;;;;4879619;29;20024;-80
2022/07/01 12:41:33;;;;;;;2.75;0.43;;;23.10;92.80;;;;;;4879368;29;20052;-80
2022/07/01 12:44:06;;;;;;;2.92;0.57;;;23.20;91.70;;;;;;4879167;29;20044;-79
2022/07/01 12:46:32;;;;;;;2.80;0.77;;;22.90;90.30;;;;;;4879652;29;20493;-80
2022/07/01 12:48:59;;;;;;;3.55;0.70;;;22.90;92.10;;;;;;4881739;29;20036;-80
2022/07/01 12:51:32;;;;;;;3.33;0.60;;;22.70;92.10;;;;;;4879670;29;20073;-81
2022/07/01 12:53:58;;;;;;;2.55;0.52;;;23.00;92.50;;;;;;4879273;29;20027;-80
2022/07/01 12:56:26;;;;;;;3.30;0.63;;;22.90;91.60;;;;;;4879092;29;20092;-79
2022/07/01 12:58:52;;;;;;;2.70;0.50;;;22.90;91.20;;;;;;4880055;29;20086;-80
2022/07/01 13:01:18;;;;;;;2.60;0.80;;;23.00;91.70;;;;;;4880706;29;20037;-82
2022/07/01 13:03:44;;;;;;;3.67;0.52;;;23.00;91.40;;;;;;4879759;29;20124;-81
2022/07/01 13:06:10;;;;;;;2.30;0.70;;;22.90;92.80;;;;;;4881833;29;20080;-80